地図

経路データ

SID SEASON NUMBER BASIN SUBBASIN NAME ISO_TIME NATURE LAT LON WMO_WIND WMO_PRES WMO_AGENCY TRACK_TYPE DIST2LAND LANDFALL IFLAG USA_AGENCY USA_ATCF_ID USA_LAT USA_LON USA_RECORD USA_STATUS USA_WIND USA_PRES USA_SSHS USA_R34_NE USA_R34_SE USA_R34_SW USA_R34_NW USA_R50_NE USA_R50_SE USA_R50_SW USA_R50_NW USA_R64_NE USA_R64_SE USA_R64_SW USA_R64_NW USA_POCI USA_ROCI USA_RMW USA_EYE TOKYO_LAT TOKYO_LON TOKYO_GRADE TOKYO_WIND TOKYO_PRES TOKYO_R50_DIR TOKYO_R50_LONG TOKYO_R50_SHORT TOKYO_R30_DIR TOKYO_R30_LONG TOKYO_R30_SHORT TOKYO_LAND CMA_LAT CMA_LON CMA_CAT CMA_WIND CMA_PRES HKO_LAT HKO_LON HKO_CAT HKO_WIND HKO_PRES NEWDELHI_LAT NEWDELHI_LON NEWDELHI_GRADE NEWDELHI_WIND NEWDELHI_PRES NEWDELHI_CI NEWDELHI_DP NEWDELHI_POCI REUNION_LAT REUNION_LON REUNION_TYPE REUNION_WIND REUNION_PRES REUNION_TNUM REUNION_CI REUNION_RMW REUNION_R34_NE REUNION_R34_SE REUNION_R34_SW REUNION_R34_NW REUNION_R50_NE REUNION_R50_SE REUNION_R50_SW REUNION_R50_NW REUNION_R64_NE REUNION_R64_SE REUNION_R64_SW REUNION_R64_NW BOM_LAT BOM_LON BOM_TYPE BOM_WIND BOM_PRES BOM_TNUM BOM_CI BOM_RMW BOM_R34_NE BOM_R34_SE BOM_R34_SW BOM_R34_NW BOM_R50_NE BOM_R50_SE BOM_R50_SW BOM_R50_NW BOM_R64_NE BOM_R64_SE BOM_R64_SW BOM_R64_NW BOM_ROCI BOM_POCI BOM_EYE BOM_POS_METHOD BOM_PRES_METHOD NADI_LAT NADI_LON NADI_CAT NADI_WIND NADI_PRES WELLINGTON_LAT WELLINGTON_LON WELLINGTON_WIND WELLINGTON_PRES DS824_LAT DS824_LON DS824_STAGE DS824_WIND DS824_PRES TD9636_LAT TD9636_LON TD9636_STAGE TD9636_WIND TD9636_PRES TD9635_LAT TD9635_LON TD9635_WIND TD9635_PRES TD9635_ROCI NEUMANN_LAT NEUMANN_LON NEUMANN_CLASS NEUMANN_WIND NEUMANN_PRES MLC_LAT MLC_LON MLC_CLASS MLC_WIND MLC_PRES USA_GUST BOM_GUST BOM_GUST_PER REUNION_GUST REUNION_GUST_PER USA_SEAHGT USA_SEARAD_NE USA_SEARAD_SE USA_SEARAD_SW USA_SEARAD_NW STORM_SPEED STORM_DIR
1938284N15153 1938 57 WP MM NOT_NAMED 1938-10-10 21:00:00 NR 15.1000 152.800 main 2005 1990 __________O___ -1 15.1000 152.800 4 7 255
1938284N15153 1938 57 WP MM NOT_NAMED 1938-10-11 00:00:00 NR 15.0185 152.474 main 1990 1973 __________P___ -1 15.0185 152.474 4 7 256
1938284N15153 1938 57 WP MM NOT_NAMED 1938-10-11 03:00:00 NR 14.9296 152.088 main 1973 1949 __________P___ -1 14.9296 152.088 4 9 257
1938284N15153 1938 57 WP MM NOT_NAMED 1938-10-11 06:00:00 NR 14.8261 151.583 main 1949 1921 __________P___ -1 14.8261 151.583 4 12 259
1938284N15153 1938 57 WP MM NOT_NAMED 1938-10-11 09:00:00 NR 14.7000 150.900 main 1921 1894 __________O___ -1 14.7000 150.900 4 16 260
1938284N15153 1938 57 WP MM NOT_NAMED 1938-10-11 12:00:00 NR 14.5485 150.008 main 1881 1857 __________P___ -1 14.5485 150.008 4 19 261
1938284N15153 1938 57 WP MM NOT_NAMED 1938-10-11 15:00:00 NR 14.3942 148.998 main 1856 1838 __________P___ -1 14.3942 148.998 4 20 262
1938284N15153 1938 57 WP MM NOT_NAMED 1938-10-11 18:00:00 NR 14.2672 147.989 main 1838 1826 __________P___ -1 14.2672 147.989 4 19 264
1938284N15153 1938 57 WP MM NOT_NAMED 1938-10-11 21:00:00 NR 14.2000 147.100 main 1826 1826 __________O___ -1 14.2000 147.100 4 14 269
1938284N15153 1938 57 WP MM NOT_NAMED 1938-10-12 00:00:00 NR 14.2404 146.542 main 1826 1826 __________P___ -1 14.2404 146.542 4 10 278
1938284N15153 1938 57 WP MM NOT_NAMED 1938-10-12 03:00:00 NR 14.3434 146.106 main 1838 1838 __________P___ -1 14.3434 146.106 4 9 286
1938284N15153 1938 57 WP MM NOT_NAMED 1938-10-12 06:00:00 NR 14.4749 145.692 main 1862 1862 __________P___ -1 14.4749 145.692 4 9 286
1938284N15153 1938 57 WP MM NOT_NAMED 1938-10-12 09:00:00 NR 14.6000 145.200 main 1877 1877 __________O___ -1 14.6000 145.200 4 12 279
1938284N15153 1938 57 WP MM NOT_NAMED 1938-10-12 12:00:00 NR 14.6622 144.424 main 1897 1897 __________P___ -1 14.6622 144.424 4 16 274
1938284N15153 1938 57 WP MM NOT_NAMED 1938-10-12 15:00:00 NR 14.7103 143.570 main 1910 1889 __________P___ -1 14.7103 143.570 4 16 273
1938284N15153 1938 57 WP MM NOT_NAMED 1938-10-12 18:00:00 NR 14.7529 142.730 main 1880 1807 __________P___ -1 14.7529 142.730 4 15 273
1938284N15153 1938 57 WP MM NOT_NAMED 1938-10-12 21:00:00 NR 14.8000 142.000 main 1807 1765 __________O___ -1 14.8000 142.000 4 11 274
1938284N15153 1938 57 WP MM NOT_NAMED 1938-10-13 00:00:00 NR 14.8365 141.583 main 1765 1734 __________P___ -1 14.8365 141.583 4 7 277
1938284N15153 1938 57 WP MM NOT_NAMED 1938-10-13 03:00:00 NR 14.8859 141.271 main 1734 1703 __________P___ -1 14.8859 141.271 4 6 282
1938284N15153 1938 57 WP MM NOT_NAMED 1938-10-13 06:00:00 NR 14.9676 140.948 main 1694 1653 __________P___ -1 14.9676 140.948 4 8 286
1938284N15153 1938 57 WP MM NOT_NAMED 1938-10-13 09:00:00 NR 15.1000 140.500 main 1653 1583 __________O___ -1 15.1000 140.500 4 13 286
1938284N15153 1938 57 WP MM NOT_NAMED 1938-10-13 12:00:00 NR 15.3146 139.701 main 1572 1485 __________P___ -1 15.3146 139.701 4 17 286
1938284N15153 1938 57 WP MM NOT_NAMED 1938-10-13 15:00:00 NR 15.5740 138.775 main 1485 1397 __________P___ -1 15.5740 138.775 4 19 286
1938284N15153 1938 57 WP MM NOT_NAMED 1938-10-13 18:00:00 NR 15.8460 137.836 main 1387 1314 __________P___ -1 15.8460 137.836 4 18 287
1938284N15153 1938 57 WP MM NOT_NAMED 1938-10-13 21:00:00 NR 16.1000 137.000 main 1314 1267 __________O___ -1 16.1000 137.000 4 14 287
1938284N15153 1938 57 WP MM NOT_NAMED 1938-10-14 00:00:00 NR 16.2660 136.430 main 1261 1225 __________P___ -1 16.2660 136.430 4 10 288
1938284N15153 1938 57 WP MM NOT_NAMED 1938-10-14 03:00:00 NR 16.4173 135.978 main 1225 1194 __________P___ -1 16.4173 135.978 4 9 292
1938284N15153 1938 57 WP MM NOT_NAMED 1938-10-14 06:00:00 NR 16.5852 135.587 main 1194 1164 __________P___ -1 16.5852 135.587 4 8 297
1938284N15153 1938 57 WP MM NOT_NAMED 1938-10-14 09:00:00 NR 16.8000 135.200 main 1164 1131 __________O___ -1 16.8000 135.200 4 10 302
1938284N15153 1938 57 WP MM NOT_NAMED 1938-10-14 12:00:00 NR 17.1287 134.665 main 1131 1101 __________P___ -1 17.1287 134.665 4 12 304
1938284N15153 1938 57 WP MM NOT_NAMED 1938-10-14 15:00:00 NR 17.5009 134.132 main 1098 1080 __________P___ -1 17.5009 134.132 4 12 308
1938284N15153 1938 57 WP MM NOT_NAMED 1938-10-14 18:00:00 NR 17.8725 133.658 main 1087 1065 __________P___ -1 17.8725 133.658 4 11 311
1938284N15153 1938 57 WP MM NOT_NAMED 1938-10-14 21:00:00 NR 18.2000 133.300 main 1065 1051 __________O___ -1 18.2000 133.300 4 7 314
1938284N15153 1938 57 WP MM NOT_NAMED 1938-10-15 00:00:00 NR 18.3839 133.095 main 1056 1047 __________P___ -1 18.3839 133.095 4 4 320
1938284N15153 1938 57 WP MM NOT_NAMED 1938-10-15 03:00:00 NR 18.5266 133.012 main 1052 1052 __________P___ -1 18.5266 133.012 4 3 348
1938284N15153 1938 57 WP MM NOT_NAMED 1938-10-15 06:00:00 NR 18.6810 133.023 main 1063 1063 __________P___ -1 18.6810 133.023 4 4 12
1938284N15153 1938 57 WP MM NOT_NAMED 1938-10-15 09:00:00 NR 18.9000 133.100 main 1083 1083 __________O___ -1 18.9000 133.100 4 6 14
1938284N15153 1938 57 WP MM NOT_NAMED 1938-10-15 12:00:00 NR 19.3060 133.192 main 1115 1115 __________P___ -1 19.3060 133.192 4 9 14
1938284N15153 1938 57 WP MM NOT_NAMED 1938-10-15 15:00:00 NR 19.7726 133.339 main 1154 1154 __________P___ -1 19.7726 133.339 4 10 18
1938284N15153 1938 57 WP MM NOT_NAMED 1938-10-15 18:00:00 NR 20.2279 133.517 main 1192 1192 __________P___ -1 20.2279 133.517 4 9 22
1938284N15153 1938 57 WP MM NOT_NAMED 1938-10-15 21:00:00 NR 20.6000 133.700 main 1199 1180 __________O___ -1 20.6000 133.700 4 6 25
1938284N15153 1938 57 WP MM NOT_NAMED 1938-10-16 00:00:00 NR 20.7765 133.790 main 1180 1172 __________P___ -1 20.7765 133.790 4 3 33
1938284N15153 1938 57 WP MM NOT_NAMED 1938-10-16 03:00:00 NR 20.8663 133.889 main 1172 1172 __________P___ -1 20.8663 133.889 4 3 58
1938284N15153 1938 57 WP MM NOT_NAMED 1938-10-16 06:00:00 NR 20.9230 134.043 main 1175 1167 __________P___ -1 20.9230 134.043 4 4 71
1938284N15153 1938 57 WP MM NOT_NAMED 1938-10-16 09:00:00 NR 21.0000 134.300 main 1173 1164 __________O___ -1 21.0000 134.300 4 7 69
1938284N15153 1938 57 WP MM NOT_NAMED 1938-10-16 12:00:00 NR 21.1894 134.789 main 1168 1161 __________P___ -1 21.1894 134.789 4 11 68
1938284N15153 1938 57 WP MM NOT_NAMED 1938-10-16 15:00:00 NR 21.4027 135.370 main 1169 1163 __________P___ -1 21.4027 135.370 4 12 68
1938284N15153 1938 57 WP MM NOT_NAMED 1938-10-16 18:00:00 NR 21.6144 135.942 main 1170 1168 __________P___ -1 21.6144 135.942 4 10 67
1938284N15153 1938 57 WP MM NOT_NAMED 1938-10-16 21:00:00 NR 21.8000 136.400 main 1173 1168 __________O___ -1 21.8000 136.400 4 7 63
1938284N15153 1938 57 WP MM NOT_NAMED 1938-10-17 00:00:00 NR 21.9277 136.613 main 1173 1163 __________P___ -1 21.9277 136.613 4 4 51
1938284N15153 1938 57 WP MM NOT_NAMED 1938-10-17 03:00:00 NR 22.0288 136.701 main 1168 1158 __________P___ -1 22.0288 136.701 4 2 26
1938284N15153 1938 57 WP MM NOT_NAMED 1938-10-17 06:00:00 NR 22.1156 136.713 main 1158 1148 __________P___ -1 22.1156 136.713 4 2 353
1938284N15153 1938 57 WP MM NOT_NAMED 1938-10-17 09:00:00 NR 22.2000 136.700 main 1148 1139 __________O___ -1 22.2000 136.700 4 2 14
1938284N15153 1938 57 WP MM NOT_NAMED 1938-10-17 12:00:00 NR 22.2918 136.760 main 1144 1134 __________P___ -1 22.2918 136.760 4 2 28
1938284N15153 1938 57 WP MM NOT_NAMED 1938-10-17 15:00:00 NR 22.3849 136.802 main 1134 1125 __________P___ -1 22.3849 136.802 4 2 16
1938284N15153 1938 57 WP MM NOT_NAMED 1938-10-17 18:00:00 NR 22.4856 136.819 main 1125 1115 __________P___ -1 22.4856 136.819 4 2 353
1938284N15153 1938 57 WP MM NOT_NAMED 1938-10-17 21:00:00 NR 22.6000 136.800 main 1115 1100 __________O___ -1 22.6000 136.800 4 3 342
1938284N15153 1938 57 WP MM NOT_NAMED 1938-10-18 00:00:00 NR 22.7316 136.732 main 1100 1076 __________P___ -1 22.7316 136.732 4 3 330
1938284N15153 1938 57 WP MM NOT_NAMED 1938-10-18 03:00:00 NR 22.8776 136.630 main 1076 1061 __________P___ -1 22.8776 136.630 4 4 326
1938284N15153 1938 57 WP MM NOT_NAMED 1938-10-18 06:00:00 NR 23.0347 136.513 main 1061 1037 __________P___ -1 23.0347 136.513 4 4 327
1938284N15153 1938 57 WP MM NOT_NAMED 1938-10-18 09:00:00 NR 23.2000 136.400 main 1037 1012 __________O___ -1 23.2000 136.400 4 4 331
1938284N15153 1938 57 WP MM NOT_NAMED 1938-10-18 12:00:00 NR 23.3719 136.314 main 1012 997 __________P___ -1 23.3719 136.314 4 4 337
1938284N15153 1938 57 WP MM NOT_NAMED 1938-10-18 15:00:00 NR 23.5500 136.235 main 997 978 __________P___ -1 23.5500 136.235 4 4 339
1938284N15153 1938 57 WP MM NOT_NAMED 1938-10-18 18:00:00 NR 23.7281 136.164 main 978 954 __________P___ -1 23.7281 136.164 4 4 341
1938284N15153 1938 57 WP MM NOT_NAMED 1938-10-18 21:00:00 NR 23.9000 136.100 main 954 945 __________O___ -1 23.9000 136.100 4 3 347
1938284N15153 1938 57 WP MM NOT_NAMED 1938-10-19 00:00:00 NR 24.0244 136.087 main 945 935 __________P___ -1 24.0244 136.087 4 2 359
1938284N15153 1938 57 WP MM NOT_NAMED 1938-10-19 03:00:00 NR 24.1470 136.074 main 935 911 __________P___ -1 24.1470 136.074 4 3 349
1938284N15153 1938 57 WP MM NOT_NAMED 1938-10-19 06:00:00 NR 24.2961 136.024 main 911 887 __________P___ -1 24.2961 136.024 4 4 336
1938284N15153 1938 57 WP MM NOT_NAMED 1938-10-19 09:00:00 NR 24.5000 135.900 main 887 842 __________O___ -1 24.5000 135.900 4 6 322
1938284N15153 1938 57 WP MM NOT_NAMED 1938-10-19 12:00:00 NR 24.7976 135.587 main 842 792 __________P___ -1 24.7976 135.587 4 9 316
1938284N15153 1938 57 WP MM NOT_NAMED 1938-10-19 15:00:00 NR 25.1490 135.208 main 792 738 __________P___ -1 25.1490 135.208 4 10 317
1938284N15153 1938 57 WP MM NOT_NAMED 1938-10-19 18:00:00 NR 25.5256 134.850 main 733 684 __________P___ -1 25.5256 134.850 4 9 324
1938284N15153 1938 57 WP MM NOT_NAMED 1938-10-19 21:00:00 NR 25.9000 134.600 main 684 670 __________O___ -1 25.9000 134.600 4 6 324
1938284N15153 1938 57 WP MM NOT_NAMED 1938-10-20 00:00:00 NR 26.0231 134.450 main 670 645 __________P___ -1 26.0231 134.450 4 3 332
1938284N15153 1938 57 WP MM NOT_NAMED 1938-10-20 03:00:00 NR 26.1719 134.437 main 645 629 __________P___ -1 26.1719 134.437 4 5 16
1938284N15153 1938 57 WP MM NOT_NAMED 1938-10-20 06:00:00 NR 26.5097 134.605 main 629 587 __________P___ -1 26.5097 134.605 4 11 26
1938284N15153 1938 57 WP MM NOT_NAMED 1938-10-20 09:00:00 NR 27.2000 135.000 main 584 517 __________O___ -1 27.2000 135.000 4 23 25
1938284N15153 1938 57 WP MM NOT_NAMED 1938-10-20 12:00:00 NR 28.5655 135.661 main 518 363 __________P___ -1 28.5655 135.661 4 34 24
1938284N15153 1938 57 WP MM NOT_NAMED 1938-10-20 15:00:00 NR 30.2616 136.571 main 353 237 __________P___ -1 30.2616 136.571 4 39 26
1938284N15153 1938 57 WP MM NOT_NAMED 1938-10-20 18:00:00 NR 32.0264 137.648 main 229 122 __________P___ -1 32.0264 137.648 4 38 30
1938284N15153 1938 57 WP MM NOT_NAMED 1938-10-20 21:00:00 NR 33.6000 138.800 main 111 49 __________O___ -1 33.6000 138.800 4 30 32
1938284N15153 1938 57 WP MM NOT_NAMED 1938-10-21 00:00:00 NR 34.5242 139.546 main 50 0 __________P___ -1 34.5242 139.546 4 21 38
1938284N15153 1938 57 WP MM NOT_NAMED 1938-10-21 03:00:00 NR 35.2496 140.364 main 0 0 __________P___ -1 35.2496 140.364 4 21 48
1938284N15153 1938 57 WP MM NOT_NAMED 1938-10-21 06:00:00 NR 35.9526 141.495 main 63 63 __________P___ -1 35.9526 141.495 4 28 56
1938284N15153 1938 57 WP MM NOT_NAMED 1938-10-21 09:00:00 NR 36.8000 143.200 main 196 196 __________O___ -1 36.8000 143.200 4 39 60
1938284N15153 1938 57 WP MM NOT_NAMED 1938-10-21 12:00:00 NR 37.8977 145.702 main 358 358 __________P___ -1 37.8977 145.702 4 51 62
1938284N15153 1938 57 WP MM NOT_NAMED 1938-10-21 15:00:00 NR 39.1639 148.936 main 527 527 __________P___ -1 39.1639 148.936 4 60 65
1938284N15153 1938 57 WP MM NOT_NAMED 1938-10-21 18:00:00 NR 40.4704 152.739 main 616 616 __________P___ -1 40.4704 152.739 4 66 67
1938284N15153 1938 57 WP MM NOT_NAMED 1938-10-21 21:00:00 NR 41.7000 156.900 main 711 __________O___ -1 41.7000 156.900 4 67 68

デジタル台風データ・検索

IBTrACS Databaseについて

本データベースは、米国NOAAが公開する1842年以降の世界の熱帯低気圧のベストトラックデータアーカイブInternational Best Track Archive for Climate Stewardship (IBTrACS)を、ウェブで閲覧しやすい形式に変換したものです。

最終更新日:2021-11-26